createdAt,value
2022-10-17T00:02:27.389Z,101849.19
2022-10-17T00:05:29.859Z,101851.91
2022-10-17T00:08:32.255Z,101853.78
2022-10-17T00:11:34.600Z,101860.78
2022-10-17T00:14:37.548Z,101862.44
2022-10-17T00:17:39.905Z,101866.53
2022-10-17T00:20:42.239Z,101856.53
2022-10-17T00:23:45.541Z,101866.97
2022-10-17T00:26:47.842Z,101871.25
2022-10-17T00:29:51.465Z,101875.63
2022-10-17T00:32:53.912Z,101879.00
2022-10-17T00:36:12.681Z,101886.84
2022-10-17T00:39:15.080Z,101886.72
2022-10-17T00:42:17.437Z,101885.94
2022-10-17T00:45:25.983Z,101877.28
2022-10-17T00:48:28.556Z,101882.59
2022-10-17T00:51:37.364Z,101875.00
2022-10-17T00:54:44.119Z,101880.38
2022-10-17T00:57:47.328Z,101877.63
2022-10-17T01:00:49.671Z,101878.50
2022-10-17T01:03:52.099Z,101877.81
2022-10-17T01:06:54.488Z,101883.13
2022-10-17T01:09:57.158Z,101882.22
2022-10-17T01:13:07.415Z,101880.59
2022-10-17T01:16:34.779Z,101888.28
2022-10-17T01:19:52.448Z,101875.44
2022-10-17T01:23:26.154Z,101872.94
2022-10-17T01:26:48.507Z,101879.78
2022-10-17T01:30:22.301Z,101871.31
2022-10-17T01:33:56.823Z,101885.09
2022-10-17T01:37:16.457Z,101885.16
2022-10-17T01:40:22.537Z,101880.81
2022-10-17T01:43:43.124Z,101875.72
2022-10-17T01:46:50.889Z,101878.22
2022-10-17T01:49:56.028Z,101883.44
2022-10-17T01:53:14.790Z,101880.00
2022-10-17T01:56:19.731Z,101877.38
2022-10-17T01:59:40.610Z,101880.91
2022-10-17T02:02:45.907Z,101886.06
2022-10-17T02:05:48.647Z,101886.16
2022-10-17T02:08:51.470Z,101883.59
2022-10-17T02:12:33.402Z,101884.44
2022-10-17T02:15:53.596Z,101886.03
2022-10-17T02:19:14.478Z,101892.94
2022-10-17T02:22:31.825Z,101895.56
2022-10-17T02:25:46.045Z,101893.84
2022-10-17T02:28:52.067Z,101899.66
2022-10-17T02:32:11.612Z,101892.88
2022-10-17T02:35:15.799Z,101894.75
2022-10-17T02:38:19.093Z,101899.19
2022-10-17T02:41:24.439Z,101909.44
2022-10-17T02:44:30.721Z,101899.09
2022-10-17T02:47:56.076Z,101907.72
2022-10-17T02:51:17.205Z,101905.88
2022-10-17T02:54:45.823Z,101904.25
2022-10-17T02:57:56.018Z,101912.81
2022-10-17T03:00:59.440Z,101914.53
2022-10-17T03:04:15.246Z,101908.44
2022-10-17T03:07:18.380Z,101916.22
2022-10-17T03:10:21.999Z,101913.84
2022-10-17T03:13:24.427Z,101918.16
2022-10-17T03:16:26.909Z,101908.81
2022-10-17T03:19:29.656Z,101913.97
2022-10-17T03:22:32.837Z,101914.91
2022-10-17T03:25:37.226Z,101920.13
2022-10-17T03:28:40.508Z,101921.84
2022-10-17T03:31:43.082Z,101917.59
2022-10-17T03:34:46.799Z,101926.16
2022-10-17T03:37:49.697Z,101926.97
2022-10-17T03:40:56.588Z,101925.34
2022-10-17T03:43:59.023Z,101929.69
2022-10-17T03:47:03.084Z,101935.78
2022-10-17T03:50:06.616Z,101931.44
2022-10-17T03:53:12.126Z,101934.81
2022-10-17T03:56:17.650Z,101939.16
2022-10-17T03:59:24.610Z,101937.50
2022-10-17T04:02:35.931Z,101947.81
2022-10-17T04:05:38.274Z,101947.81
2022-10-17T04:08:42.576Z,101944.47
2022-10-17T04:11:48.901Z,101953.09
2022-10-17T04:14:52.009Z,101958.31
2022-10-17T04:17:56.376Z,101964.34
2022-10-17T04:21:01.589Z,101955.00
2022-10-17T04:24:04.595Z,101949.91
2022-10-17T04:27:18.783Z,101959.31
2022-10-17T04:30:22.765Z,101966.09
2022-10-17T04:33:25.809Z,101955.75
2022-10-17T04:36:28.226Z,101972.09
2022-10-17T04:39:30.731Z,101961.88
2022-10-17T04:42:33.832Z,101960.19
2022-10-17T04:45:36.578Z,101968.78
2022-10-17T04:48:41.287Z,101960.28
2022-10-17T04:51:43.833Z,101973.22
2022-10-17T04:55:07.303Z,101972.25
2022-10-17T04:58:09.866Z,101980.81
2022-10-17T05:01:18.837Z,101984.19
2022-10-17T05:04:26.969Z,101997.06
2022-10-17T05:07:29.426Z,101991.97
2022-10-17T05:10:46.988Z,101997.06
2022-10-17T05:13:54.683Z,102004.78
2022-10-17T05:16:57.691Z,102003.13
2022-10-17T05:20:00.918Z,102006.50
2022-10-17T05:23:05.471Z,102008.16
2022-10-17T05:26:13.480Z,102004.72
2022-10-17T05:29:16.079Z,102011.53
2022-10-17T05:32:23.307Z,102020.91
2022-10-17T05:35:25.980Z,102025.03
2022-10-17T05:38:29.361Z,102030.16
2022-10-17T05:41:32.864Z,102035.22
2022-10-17T05:44:35.368Z,102041.94
2022-10-17T05:47:38.418Z,102049.66
2022-10-17T05:50:41.285Z,102039.31
2022-10-17T05:53:49.222Z,102047.63
2022-10-17T05:56:58.234Z,102046.63
2022-10-17T06:00:05.522Z,102049.97
2022-10-17T06:03:16.647Z,102061.00
2022-10-17T06:06:19.633Z,102068.66
2022-10-17T06:09:24.024Z,102071.09
2022-10-17T06:12:29.407Z,102082.09
2022-10-17T06:15:32.136Z,102085.41
2022-10-17T06:18:39.251Z,102087.72
2022-10-17T06:21:41.806Z,102084.75
2022-10-17T06:24:55.370Z,102087.25
2022-10-17T06:28:00.244Z,102097.47
2022-10-17T06:31:12.765Z,102107.72
2022-10-17T06:34:19.036Z,102109.38
2022-10-17T06:37:22.166Z,102114.38
2022-10-17T06:40:24.876Z,102109.03
2022-10-17T06:43:28.157Z,102111.34
2022-10-17T06:47:02.923Z,102119.41
2022-10-17T06:50:05.864Z,102122.31
2022-10-17T06:53:34.596Z,102120.81
2022-10-17T06:57:01.899Z,102122.97
2022-10-17T07:00:23.576Z,102130.88
2022-10-17T07:03:30.350Z,102129.53
2022-10-17T07:06:33.237Z,102127.41
2022-10-17T07:09:42.368Z,102127.66
2022-10-17T07:12:45.851Z,102130.50
2022-10-17T07:15:48.606Z,102137.09
2022-10-17T07:18:54.325Z,102134.94
2022-10-17T07:21:57.106Z,102134.03
2022-10-17T07:25:00.111Z,102140.69
2022-10-17T07:28:07.025Z,102148.84
2022-10-17T07:31:12.892Z,102145.19
2022-10-17T07:34:15.630Z,102143.41
2022-10-17T07:37:19.207Z,102145.06
2022-10-17T07:40:27.912Z,102139.41
2022-10-17T07:43:31.194Z,102149.47
2022-10-17T07:46:35.349Z,102146.97
2022-10-17T07:49:42.536Z,102147.91
2022-10-17T07:52:45.124Z,102154.88
2022-10-17T07:55:49.591Z,102160.81
2022-10-17T07:58:53.239Z,102152.09
2022-10-17T08:01:56.719Z,102156.94
2022-10-17T08:04:59.214Z,102149.69
2022-10-17T08:08:01.625Z,102147.88
2022-10-17T08:11:07.422Z,102147.03
2022-10-17T08:14:14.118Z,102149.06
2022-10-17T08:17:16.580Z,102147.97
2022-10-17T08:20:22.162Z,102151.56
2022-10-17T08:23:24.573Z,102149.72
2022-10-17T08:26:26.932Z,102146.41
2022-10-17T08:29:29.841Z,102149.66
2022-10-17T08:32:32.708Z,102149.97
2022-10-17T08:35:35.920Z,102154.72
2022-10-17T08:38:43.103Z,102143.06
2022-10-17T08:42:14.330Z,102145.94
2022-10-17T08:45:51.999Z,102158.97
2022-10-17T08:48:54.591Z,102153.66
2022-10-17T08:52:07.078Z,102143.06
2022-10-17T08:55:33.909Z,102148.25
2022-10-17T08:58:37.368Z,102150.72
2022-10-17T09:02:02.903Z,102149.69
2022-10-17T09:05:08.397Z,102140.72
2022-10-17T09:08:35.335Z,102153.56
2022-10-17T09:11:52.503Z,102152.22
2022-10-17T09:15:49.121Z,102150.41
2022-10-17T09:19:33.813Z,102153.50
2022-10-17T09:26:02.486Z,102152.59
2022-10-17T09:29:15.594Z,102155.44
2022-10-17T09:32:24.037Z,102147.88
2022-10-17T09:35:29.373Z,102145.97
2022-10-17T09:38:40.977Z,102151.16
2022-10-17T09:41:49.763Z,102149.81
2022-10-17T09:45:05.190Z,102149.44
2022-10-17T09:48:26.215Z,102151.19
2022-10-17T09:51:31.147Z,102154.63
2022-10-17T09:54:51.758Z,102148.78
2022-10-17T09:58:03.787Z,102149.19
2022-10-17T10:01:42.046Z,102146.34
2022-10-17T10:05:06.585Z,102142.09
2022-10-17T10:08:19.311Z,102146.28
2022-10-17T10:11:44.231Z,102143.22
2022-10-17T10:14:47.354Z,102139.63
2022-10-17T10:17:52.815Z,102140.88
2022-10-17T10:21:09.801Z,102140.41
2022-10-17T10:24:13.702Z,102125.38
2022-10-17T10:27:18.141Z,102134.34
2022-10-17T10:30:28.087Z,102126.97
2022-10-17T10:33:33.766Z,102127.06
2022-10-17T10:37:16.981Z,102129.63
2022-10-17T10:40:23.607Z,102133.53
2022-10-17T10:43:47.863Z,102127.81
2022-10-17T10:47:07.118Z,102134.59
2022-10-17T10:50:23.774Z,102122.91
2022-10-17T10:53:35.105Z,102123.75
2022-10-17T10:56:43.851Z,102125.66
2022-10-17T10:59:56.720Z,102125.41
2022-10-17T11:06:45.392Z,102120.28
2022-10-17T11:09:58.620Z,102112.56
2022-10-17T11:13:11.674Z,102107.19
2022-10-17T11:16:29.582Z,102107.06
2022-10-17T11:19:38.083Z,102106.28
2022-10-17T11:22:45.439Z,102102.72
2022-10-17T11:25:51.762Z,102095.88
2022-10-17T11:28:56.130Z,102103.22
2022-10-17T11:32:05.771Z,102098.16
2022-10-17T11:35:32.446Z,102094.66
2022-10-17T11:38:53.449Z,102093.38
2022-10-17T11:42:06.949Z,102093.06
2022-10-17T11:45:15.798Z,102092.03
2022-10-17T11:48:50.044Z,102082.94
2022-10-17T11:52:05.303Z,102082.53
2022-10-17T11:55:27.529Z,102076.81
2022-10-17T11:58:42.444Z,102073.59
2022-10-17T12:01:52.663Z,102066.50
2022-10-17T12:05:05.642Z,102070.63
2022-10-17T12:08:47.231Z,102071.69
2022-10-17T12:11:59.012Z,102071.22
2022-10-17T12:15:13.832Z,102066.84
2022-10-17T12:18:17.679Z,102067.16
2022-10-17T12:21:20.340Z,102057.19
2022-10-17T12:24:31.949Z,102068.63
2022-10-17T12:27:43.444Z,102060.06
2022-10-17T12:31:15.627Z,102059.22
2022-10-17T12:34:22.273Z,102057.56
2022-10-17T12:37:43.120Z,102055.50
2022-10-17T12:40:49.030Z,102047.31
2022-10-17T12:43:54.017Z,102053.63
2022-10-17T12:47:07.969Z,102049.03
2022-10-17T12:50:49.298Z,102033.50
2022-10-17T12:54:11.966Z,102033.91
2022-10-17T12:57:44.377Z,102038.81
2022-10-17T13:01:18.883Z,102038.28
2022-10-17T13:04:18.419Z,102033.09
2022-10-17T13:07:22.362Z,102033.91
2022-10-17T13:10:28.470Z,102030.03
2022-10-17T13:13:33.891Z,102032.31
2022-10-17T13:16:51.356Z,102035.13
2022-10-17T13:19:55.487Z,102032.06
2022-10-17T13:22:58.639Z,102033.97
2022-10-17T13:26:10.210Z,102039.13
2022-10-17T13:29:16.349Z,102032.03
2022-10-17T13:32:18.818Z,102025.38
2022-10-17T13:36:01.871Z,102034.66
2022-10-17T13:38:54.990Z,102032.97
2022-10-17T13:41:58.088Z,102025.69
2022-10-17T13:45:00.487Z,102034.19
2022-10-17T13:48:06.847Z,102030.25
2022-10-17T13:51:11.187Z,102027.72
2022-10-17T13:54:34.925Z,102019.56
2022-10-17T13:57:37.697Z,102030.53
2022-10-17T14:00:40.566Z,102025.13
2022-10-17T14:03:48.565Z,102026.16
2022-10-17T14:06:52.535Z,102026.34
2022-10-17T14:09:55.409Z,102026.22
2022-10-17T14:12:58.450Z,102027.31
2022-10-17T14:16:03.486Z,102026.97
2022-10-17T14:19:22.964Z,102026.66
2022-10-17T14:22:28.134Z,102021.91
2022-10-17T14:25:31.806Z,102022.53
2022-10-17T14:28:34.849Z,102027.72
2022-10-17T14:31:37.314Z,102025.59
2022-10-17T14:34:40.852Z,102018.00
2022-10-17T14:37:48.825Z,102016.19
2022-10-17T14:41:00.942Z,102011.50
2022-10-17T14:44:33.068Z,102014.47
2022-10-17T14:47:43.692Z,102014.66
2022-10-17T14:51:14.686Z,102014.22
2022-10-17T14:54:23.097Z,102012.91
2022-10-17T14:57:41.688Z,102008.19
2022-10-17T15:00:44.184Z,102014.66
2022-10-17T15:03:46.744Z,102015.06
2022-10-17T15:06:54.822Z,102012.91
2022-10-17T15:09:57.385Z,102020.47
2022-10-17T15:13:16.413Z,102013.44
2022-10-17T15:16:30.751Z,102009.03
2022-10-17T15:19:33.451Z,102018.97
2022-10-17T15:22:36.702Z,102018.63
2022-10-17T15:25:39.294Z,102016.91
2022-10-17T15:28:42.014Z,102003.63
2022-10-17T15:31:44.815Z,102013.00
2022-10-17T15:34:47.355Z,102015.44
2022-10-17T15:37:50.375Z,102023.81
2022-10-17T15:40:52.911Z,102025.63
2022-10-17T15:43:55.683Z,102021.84
2022-10-17T15:46:58.082Z,102026.72
2022-10-17T15:50:00.867Z,102027.94
2022-10-17T15:53:05.727Z,102024.97
2022-10-17T15:56:15.059Z,102030.84
2022-10-17T15:59:21.755Z,102031.47
2022-10-17T16:02:24.443Z,102037.09
2022-10-17T16:05:27.107Z,102036.69
2022-10-17T16:08:29.486Z,102042.53
2022-10-17T16:11:35.411Z,102040.56
2022-10-17T16:14:37.824Z,102044.78
2022-10-17T16:17:40.530Z,102047.66
2022-10-17T16:20:44.104Z,102038.22
2022-10-17T16:23:46.663Z,102052.59
2022-10-17T16:26:49.367Z,102052.38
2022-10-17T16:29:52.095Z,102053.13
2022-10-17T16:32:55.436Z,102057.91
2022-10-17T16:35:58.079Z,102054.69
2022-10-17T16:39:00.891Z,102059.84
2022-10-17T16:42:03.342Z,102061.50
2022-10-17T16:45:06.263Z,102060.22
2022-10-17T16:48:09.333Z,102054.06
2022-10-17T16:51:13.337Z,102054.38
2022-10-17T16:54:16.275Z,102054.13
2022-10-17T16:57:19.285Z,102056.22
2022-10-17T17:00:21.961Z,102059.25
2022-10-17T17:03:24.407Z,102060.59
2022-10-17T17:06:30.605Z,102055.56
2022-10-17T17:09:33.320Z,102063.66
2022-10-17T17:12:36.347Z,102058.50
2022-10-17T17:15:38.820Z,102058.78
2022-10-17T17:18:41.762Z,102064.56
2022-10-17T17:21:51.006Z,102058.66
2022-10-17T17:24:53.472Z,102068.75
2022-10-17T17:27:55.776Z,102073.06
2022-10-17T17:30:58.343Z,102067.50
2022-10-17T17:34:01.450Z,102067.34
2022-10-17T17:37:03.811Z,102076.28
2022-10-17T17:40:06.766Z,102066.66
2022-10-17T17:43:09.119Z,102069.38
2022-10-17T17:46:12.024Z,102074.84
2022-10-17T17:49:14.437Z,102073.00
2022-10-17T17:52:16.874Z,102080.00
2022-10-17T17:55:19.440Z,102078.44
2022-10-17T17:58:21.796Z,102073.59
2022-10-17T18:01:26.869Z,102075.69
2022-10-17T18:04:29.481Z,102073.19
2022-10-17T18:07:31.858Z,102078.81
2022-10-17T18:10:35.478Z,102065.97
2022-10-17T18:13:38.238Z,102077.19
2022-10-17T18:16:42.217Z,102067.69
2022-10-17T18:19:44.603Z,102075.63
2022-10-17T18:22:47.103Z,102073.41
2022-10-17T18:25:58.470Z,102061.34
2022-10-17T18:29:01.162Z,102065.06
2022-10-17T18:32:03.557Z,102062.69
2022-10-17T18:35:06.335Z,102063.50
2022-10-17T18:38:08.693Z,102063.78
2022-10-17T18:41:18.046Z,102057.66
2022-10-17T18:44:20.518Z,102050.22
2022-10-17T18:47:22.994Z,102051.06
2022-10-17T18:50:25.924Z,102049.53
2022-10-17T18:53:28.909Z,102055.66
2022-10-17T18:56:31.929Z,102061.19
2022-10-17T18:59:34.474Z,102059.53
2022-10-17T19:02:38.047Z,102054.22
2022-10-17T19:05:41.455Z,102062.22
2022-10-17T19:08:44.631Z,102053.31
2022-10-17T19:11:47.286Z,102060.16
2022-10-17T19:14:50.854Z,102064.22
2022-10-17T19:17:53.207Z,102065.63
2022-10-17T19:20:55.810Z,102068.47
2022-10-17T19:24:03.824Z,102066.50
2022-10-17T19:27:06.883Z,102073.72
2022-10-17T19:30:10.731Z,102075.53
2022-10-17T19:33:13.484Z,102072.78
2022-10-17T19:36:16.474Z,102068.41
2022-10-17T19:39:20.979Z,102068.59
2022-10-17T19:42:24.118Z,102064.09
2022-10-17T19:45:26.430Z,102066.03
2022-10-17T19:48:32.005Z,102067.94
2022-10-17T19:51:34.750Z,102069.72
2022-10-17T19:54:38.913Z,102076.47
2022-10-17T19:57:41.383Z,102069.59
2022-10-17T20:00:50.993Z,102069.06
2022-10-17T20:03:54.348Z,102075.22
2022-10-17T20:06:59.809Z,102079.50
2022-10-17T20:10:02.329Z,102071.72
2022-10-17T20:13:04.931Z,102066.63
2022-10-17T20:16:09.064Z,102068.31
2022-10-17T20:19:13.568Z,102070.03
2022-10-17T20:22:16.055Z,102076.22
2022-10-17T20:25:18.590Z,102075.63
2022-10-17T20:28:27.846Z,102071.63
2022-10-17T20:31:30.778Z,102073.41
2022-10-17T20:34:35.642Z,102066.31
2022-10-17T20:37:44.283Z,102070.75
2022-10-17T20:40:48.132Z,102061.34
2022-10-17T20:43:55.402Z,102070.16
2022-10-17T20:47:02.279Z,102070.69
2022-10-17T20:50:07.602Z,102062.94
2022-10-17T20:56:38.191Z,102064.22
2022-10-17T20:59:43.229Z,102069.53
2022-10-17T21:02:49.420Z,102073.13
2022-10-17T21:05:54.219Z,102066.28
2022-10-17T21:09:01.483Z,102070.59
2022-10-17T21:12:07.643Z,102073.91
2022-10-17T21:15:10.805Z,102071.41
2022-10-17T21:18:13.141Z,102070.34
2022-10-17T21:21:19.894Z,102071.13
2022-10-17T21:24:22.518Z,102072.13
2022-10-17T21:27:30.823Z,102064.28
2022-10-17T21:30:33.215Z,102068.59
2022-10-17T21:33:35.540Z,102061.78
2022-10-17T21:36:38.561Z,102062.78
2022-10-17T21:39:41.074Z,102070.47
2022-10-17T21:42:43.403Z,102064.66
2022-10-17T21:45:45.849Z,102058.56
2022-10-17T21:48:49.349Z,102060.34
2022-10-17T21:51:52.896Z,102057.19
2022-10-17T21:54:55.190Z,102054.84
2022-10-17T21:57:57.567Z,102054.03
2022-10-17T22:01:21.710Z,102043.72
2022-10-17T22:04:24.135Z,102049.75
2022-10-17T22:07:26.548Z,102048.16
2022-10-17T22:10:28.983Z,102037.91
2022-10-17T22:13:31.361Z,102038.06
2022-10-17T22:16:34.929Z,102038.16
2022-10-17T22:19:37.305Z,102032.88
2022-10-17T22:22:39.619Z,102040.00
2022-10-17T22:25:41.942Z,102036.63
2022-10-17T22:28:44.374Z,102035.94
2022-10-17T22:31:46.966Z,102035.19
2022-10-17T22:34:49.360Z,102031.91
2022-10-17T22:37:51.654Z,102035.38
2022-10-17T22:40:56.686Z,102030.34
2022-10-17T22:43:59.186Z,102033.94
2022-10-17T22:47:01.541Z,102037.53
2022-10-17T22:50:04.071Z,102039.41
2022-10-17T22:53:06.464Z,102036.88
2022-10-17T22:56:17.838Z,102035.97
2022-10-17T22:59:20.375Z,102038.56
2022-10-17T23:02:22.907Z,102038.66
2022-10-17T23:05:25.260Z,102029.31
2022-10-17T23:08:28.299Z,102030.22
2022-10-17T23:11:31.268Z,102023.34
2022-10-17T23:14:34.280Z,102030.94
2022-10-17T23:17:36.703Z,102031.81
2022-10-17T23:20:39.692Z,102029.94
2022-10-17T23:23:42.049Z,102033.38
2022-10-17T23:26:44.435Z,102029.25
2022-10-17T23:29:46.770Z,102026.69
2022-10-17T23:32:49.230Z,102016.25
2022-10-17T23:35:51.599Z,102021.34
2022-10-17T23:38:56.464Z,102021.63
2022-10-17T23:42:00.908Z,102018.13
2022-10-17T23:45:03.987Z,102021.78
2022-10-17T23:48:07.207Z,102026.88
2022-10-17T23:51:10.729Z,102026.03
2022-10-17T23:54:13.067Z,102019.00
2022-10-17T23:57:15.568Z,102011.22
